sensor_id;sensor_type;location;lat;lon;timestamp;P1;durP1;ratioP1;P2;durP2;ratioP2
13959;SDS011;7052;51.050;3.716;2024-02-16T00:00:12;6.90;;;3.95;;
13959;SDS011;7052;51.050;3.716;2024-02-16T00:02:41;6.00;;;4.30;;
13959;SDS011;7052;51.050;3.716;2024-02-16T00:05:09;7.95;;;4.30;;
13959;SDS011;7052;51.050;3.716;2024-02-16T00:07:38;5.68;;;3.40;;
13959;SDS011;7052;51.050;3.716;2024-02-16T00:10:05;4.78;;;3.90;;
13959;SDS011;7052;51.050;3.716;2024-02-16T00:12:36;3.80;;;3.40;;
13959;SDS011;7052;51.050;3.716;2024-02-16T00:15:07;5.65;;;4.15;;
13959;SDS011;7052;51.050;3.716;2024-02-16T00:17:37;3.75;;;3.30;;
13959;SDS011;7052;51.050;3.716;2024-02-16T00:20:05;6.25;;;3.72;;
13959;SDS011;7052;51.050;3.716;2024-02-16T00:22:37;5.22;;;3.33;;
13959;SDS011;7052;51.050;3.716;2024-02-16T00:25:06;6.32;;;3.10;;
13959;SDS011;7052;51.050;3.716;2024-02-16T00:27:36;4.75;;;3.72;;
13959;SDS011;7052;51.050;3.716;2024-02-16T00:30:04;5.22;;;3.35;;
13959;SDS011;7052;51.050;3.716;2024-02-16T00:32:32;3.85;;;3.15;;
13959;SDS011;7052;51.050;3.716;2024-02-16T00:34:59;5.75;;;4.07;;
13959;SDS011;7052;51.050;3.716;2024-02-16T00:37:26;6.38;;;4.53;;
13959;SDS011;7052;51.050;3.716;2024-02-16T00:39:53;4.95;;;3.50;;
13959;SDS011;7052;51.050;3.716;2024-02-16T00:42:22;4.32;;;3.40;;
13959;SDS011;7052;51.050;3.716;2024-02-16T00:44:50;3.63;;;3.05;;
13959;SDS011;7052;51.050;3.716;2024-02-16T00:47:17;4.68;;;3.40;;
13959;SDS011;7052;51.050;3.716;2024-02-16T00:49:44;4.22;;;3.30;;
13959;SDS011;7052;51.050;3.716;2024-02-16T00:52:11;5.13;;;3.40;;
13959;SDS011;7052;51.050;3.716;2024-02-16T00:54:42;4.83;;;3.93;;
13959;SDS011;7052;51.050;3.716;2024-02-16T00:57:10;4.07;;;3.38;;
13959;SDS011;7052;51.050;3.716;2024-02-16T00:59:39;5.60;;;3.43;;
13959;SDS011;7052;51.050;3.716;2024-02-16T01:02:09;4.97;;;3.38;;
13959;SDS011;7052;51.050;3.716;2024-02-16T01:04:37;4.77;;;3.77;;
13959;SDS011;7052;51.050;3.716;2024-02-16T01:07:04;4.93;;;3.50;;
13959;SDS011;7052;51.050;3.716;2024-02-16T01:09:35;7.73;;;5.50;;
13959;SDS011;7052;51.050;3.716;2024-02-16T01:12:03;3.70;;;3.28;;
13959;SDS011;7052;51.050;3.716;2024-02-16T01:14:30;4.55;;;3.33;;
13959;SDS011;7052;51.050;3.716;2024-02-16T01:16:57;4.80;;;3.50;;
13959;SDS011;7052;51.050;3.716;2024-02-16T01:19:27;4.70;;;3.40;;
13959;SDS011;7052;51.050;3.716;2024-02-16T01:21:54;4.93;;;3.60;;
13959;SDS011;7052;51.050;3.716;2024-02-16T01:24:22;5.72;;;3.60;;
13959;SDS011;7052;51.050;3.716;2024-02-16T01:26:49;6.05;;;3.60;;
13959;SDS011;7052;51.050;3.716;2024-02-16T01:29:19;4.32;;;3.40;;
13959;SDS011;7052;51.050;3.716;2024-02-16T01:31:46;4.55;;;3.58;;
13959;SDS011;7052;51.050;3.716;2024-02-16T01:34:13;4.80;;;3.67;;
13959;SDS011;7052;51.050;3.716;2024-02-16T01:36:42;4.60;;;3.70;;
13959;SDS011;7052;51.050;3.716;2024-02-16T01:39:09;4.20;;;3.55;;
13959;SDS011;7052;51.050;3.716;2024-02-16T01:41:38;6.75;;;3.45;;
13959;SDS011;7052;51.050;3.716;2024-02-16T01:44:05;5.93;;;3.78;;
13959;SDS011;7052;51.050;3.716;2024-02-16T01:46:33;4.72;;;3.60;;
13959;SDS011;7052;51.050;3.716;2024-02-16T01:49:01;4.55;;;3.53;;
13959;SDS011;7052;51.050;3.716;2024-02-16T01:51:29;4.83;;;3.80;;
13959;SDS011;7052;51.050;3.716;2024-02-16T01:53:59;4.15;;;3.75;;
13959;SDS011;7052;51.050;3.716;2024-02-16T01:56:27;5.07;;;3.77;;
13959;SDS011;7052;51.050;3.716;2024-02-16T01:58:54;4.28;;;3.58;;
13959;SDS011;7052;51.050;3.716;2024-02-16T02:01:23;9.03;;;4.33;;
13959;SDS011;7052;51.050;3.716;2024-02-16T02:03:50;6.32;;;3.67;;
13959;SDS011;7052;51.050;3.716;2024-02-16T02:06:17;4.03;;;3.63;;
13959;SDS011;7052;51.050;3.716;2024-02-16T02:08:44;6.57;;;4.10;;
13959;SDS011;7052;51.050;3.716;2024-02-16T02:11:12;5.10;;;3.90;;
13959;SDS011;7052;51.050;3.716;2024-02-16T02:13:42;7.10;;;4.43;;
13959;SDS011;7052;51.050;3.716;2024-02-16T02:16:10;6.03;;;3.70;;
13959;SDS011;7052;51.050;3.716;2024-02-16T02:18:38;4.27;;;3.70;;
13959;SDS011;7052;51.050;3.716;2024-02-16T02:21:05;5.53;;;3.80;;
13959;SDS011;7052;51.050;3.716;2024-02-16T02:23:33;5.27;;;3.70;;
13959;SDS011;7052;51.050;3.716;2024-02-16T02:26:01;5.03;;;3.50;;
13959;SDS011;7052;51.050;3.716;2024-02-16T02:28:29;3.77;;;3.40;;
13959;SDS011;7052;51.050;3.716;2024-02-16T02:30:56;5.60;;;3.97;;
13959;SDS011;7052;51.050;3.716;2024-02-16T02:33:23;5.23;;;3.40;;
13959;SDS011;7052;51.050;3.716;2024-02-16T02:35:50;7.10;;;3.80;;
13959;SDS011;7052;51.050;3.716;2024-02-16T02:38:18;4.10;;;3.60;;
13959;SDS011;7052;51.050;3.716;2024-02-16T02:40:46;5.33;;;3.50;;
13959;SDS011;7052;51.050;3.716;2024-02-16T02:43:13;4.13;;;3.37;;
13959;SDS011;7052;51.050;3.716;2024-02-16T02:45:40;4.30;;;3.87;;
13959;SDS011;7052;51.050;3.716;2024-02-16T02:48:07;6.33;;;4.00;;
13959;SDS011;7052;51.050;3.716;2024-02-16T02:50:35;5.25;;;3.75;;
13959;SDS011;7052;51.050;3.716;2024-02-16T02:53:01;4.43;;;3.80;;
13959;SDS011;7052;51.050;3.716;2024-02-16T02:55:28;4.55;;;3.58;;
13959;SDS011;7052;51.050;3.716;2024-02-16T02:57:59;7.03;;;4.30;;
13959;SDS011;7052;51.050;3.716;2024-02-16T03:00:26;4.97;;;3.80;;
13959;SDS011;7052;51.050;3.716;2024-02-16T03:02:57;4.30;;;3.50;;
13959;SDS011;7052;51.050;3.716;2024-02-16T03:05:24;4.23;;;3.83;;
13959;SDS011;7052;51.050;3.716;2024-02-16T03:07:53;4.93;;;3.43;;
13959;SDS011;7052;51.050;3.716;2024-02-16T03:10:20;4.60;;;3.55;;
13959;SDS011;7052;51.050;3.716;2024-02-16T03:12:48;5.83;;;3.73;;
13959;SDS011;7052;51.050;3.716;2024-02-16T03:15:17;4.32;;;3.45;;
13959;SDS011;7052;51.050;3.716;2024-02-16T03:17:46;4.30;;;3.58;;
13959;SDS011;7052;51.050;3.716;2024-02-16T03:20:13;4.60;;;3.27;;
13959;SDS011;7052;51.050;3.716;2024-02-16T03:22:41;3.97;;;3.30;;
13959;SDS011;7052;51.050;3.716;2024-02-16T03:25:12;4.07;;;3.40;;
13959;SDS011;7052;51.050;3.716;2024-02-16T03:27:39;4.57;;;3.50;;
13959;SDS011;7052;51.050;3.716;2024-02-16T03:30:07;5.47;;;3.80;;
13959;SDS011;7052;51.050;3.716;2024-02-16T03:32:36;6.57;;;3.70;;
13959;SDS011;7052;51.050;3.716;2024-02-16T03:35:04;4.97;;;3.40;;
13959;SDS011;7052;51.050;3.716;2024-02-16T03:37:31;4.10;;;3.50;;
13959;SDS011;7052;51.050;3.716;2024-02-16T03:39:58;7.72;;;3.40;;
13959;SDS011;7052;51.050;3.716;2024-02-16T03:42:25;5.32;;;3.90;;
13959;SDS011;7052;51.050;3.716;2024-02-16T03:44:54;4.22;;;3.63;;
13959;SDS011;7052;51.050;3.716;2024-02-16T03:47:21;7.07;;;3.47;;
13959;SDS011;7052;51.050;3.716;2024-02-16T03:49:50;5.68;;;3.42;;
13959;SDS011;7052;51.050;3.716;2024-02-16T03:52:18;4.55;;;3.42;;
13959;SDS011;7052;51.050;3.716;2024-02-16T03:54:45;5.63;;;3.55;;
13959;SDS011;7052;51.050;3.716;2024-02-16T03:57:13;5.15;;;3.67;;
13959;SDS011;7052;51.050;3.716;2024-02-16T03:59:41;4.57;;;3.47;;
13959;SDS011;7052;51.050;3.716;2024-02-16T04:02:11;6.38;;;3.72;;
13959;SDS011;7052;51.050;3.716;2024-02-16T04:04:39;4.60;;;3.72;;
13959;SDS011;7052;51.050;3.716;2024-02-16T04:07:08;3.80;;;3.50;;
13959;SDS011;7052;51.050;3.716;2024-02-16T04:09:35;4.95;;;3.53;;
13959;SDS011;7052;51.050;3.716;2024-02-16T04:12:02;4.28;;;3.42;;
13959;SDS011;7052;51.050;3.716;2024-02-16T04:14:31;5.43;;;3.58;;
13959;SDS011;7052;51.050;3.716;2024-02-16T04:16:58;4.75;;;3.75;;
13959;SDS011;7052;51.050;3.716;2024-02-16T04:19:36;4.95;;;3.45;;
13959;SDS011;7052;51.050;3.716;2024-02-16T04:22:04;4.75;;;3.70;;
13959;SDS011;7052;51.050;3.716;2024-02-16T04:24:36;6.18;;;4.13;;
13959;SDS011;7052;51.050;3.716;2024-02-16T04:27:03;5.80;;;3.35;;
13959;SDS011;7052;51.050;3.716;2024-02-16T04:29:32;4.68;;;3.50;;
13959;SDS011;7052;51.050;3.716;2024-02-16T04:31:59;6.13;;;4.10;;
13959;SDS011;7052;51.050;3.716;2024-02-16T04:34:26;4.70;;;3.60;;
13959;SDS011;7052;51.050;3.716;2024-02-16T04:36:53;5.13;;;3.50;;
13959;SDS011;7052;51.050;3.716;2024-02-16T04:39:23;4.93;;;3.80;;
13959;SDS011;7052;51.050;3.716;2024-02-16T04:41:50;4.90;;;3.40;;
13959;SDS011;7052;51.050;3.716;2024-02-16T04:44:18;3.97;;;3.40;;
13959;SDS011;7052;51.050;3.716;2024-02-16T04:46:45;4.70;;;3.80;;
13959;SDS011;7052;51.050;3.716;2024-02-16T04:49:12;5.55;;;3.53;;
13959;SDS011;7052;51.050;3.716;2024-02-16T04:51:39;5.15;;;3.78;;
13959;SDS011;7052;51.050;3.716;2024-02-16T04:54:06;4.63;;;3.70;;
13959;SDS011;7052;51.050;3.716;2024-02-16T04:56:37;6.47;;;4.03;;
13959;SDS011;7052;51.050;3.716;2024-02-16T04:59:05;6.33;;;4.00;;
13959;SDS011;7052;51.050;3.716;2024-02-16T05:01:32;5.63;;;3.80;;
13959;SDS011;7052;51.050;3.716;2024-02-16T05:03:58;7.23;;;5.10;;
13959;SDS011;7052;51.050;3.716;2024-02-16T05:06:26;5.20;;;3.85;;
13959;SDS011;7052;51.050;3.716;2024-02-16T05:08:55;6.00;;;3.47;;
13959;SDS011;7052;51.050;3.716;2024-02-16T05:11:22;5.10;;;3.67;;
13959;SDS011;7052;51.050;3.716;2024-02-16T05:13:52;6.57;;;4.43;;
13959;SDS011;7052;51.050;3.716;2024-02-16T05:16:19;7.03;;;4.03;;
13959;SDS011;7052;51.050;3.716;2024-02-16T05:18:46;8.55;;;3.80;;
13959;SDS011;7052;51.050;3.716;2024-02-16T05:21:13;7.37;;;4.00;;
13959;SDS011;7052;51.050;3.716;2024-02-16T05:23:39;6.40;;;4.20;;
13959;SDS011;7052;51.050;3.716;2024-02-16T05:26:06;4.50;;;3.57;;
13959;SDS011;7052;51.050;3.716;2024-02-16T05:28:38;7.17;;;4.50;;
13959;SDS011;7052;51.050;3.716;2024-02-16T05:31:14;6.50;;;4.30;;
13959;SDS011;7052;51.050;3.716;2024-02-16T05:33:42;6.60;;;4.40;;
13959;SDS011;7052;51.050;3.716;2024-02-16T05:36:11;6.87;;;4.10;;
13959;SDS011;7052;51.050;3.716;2024-02-16T05:38:38;7.40;;;4.30;;
13959;SDS011;7052;51.050;3.716;2024-02-16T05:41:08;4.77;;;3.80;;
13959;SDS011;7052;51.050;3.716;2024-02-16T05:43:37;4.17;;;3.77;;
13959;SDS011;7052;51.050;3.716;2024-02-16T05:46:04;7.27;;;4.00;;
13959;SDS011;7052;51.050;3.716;2024-02-16T05:48:33;6.80;;;4.22;;
13959;SDS011;7052;51.050;3.716;2024-02-16T05:51:03;7.07;;;4.40;;
13959;SDS011;7052;51.050;3.716;2024-02-16T05:53:30;5.33;;;4.03;;
13959;SDS011;7052;51.050;3.716;2024-02-16T05:55:58;7.30;;;4.15;;
13959;SDS011;7052;51.050;3.716;2024-02-16T05:58:26;5.57;;;4.00;;
13959;SDS011;7052;51.050;3.716;2024-02-16T06:00:54;5.90;;;4.03;;
13959;SDS011;7052;51.050;3.716;2024-02-16T06:03:26;6.53;;;4.03;;
13959;SDS011;7052;51.050;3.716;2024-02-16T06:05:54;6.73;;;4.13;;
13959;SDS011;7052;51.050;3.716;2024-02-16T06:08:20;5.50;;;4.30;;
13959;SDS011;7052;51.050;3.716;2024-02-16T06:10:48;7.97;;;3.90;;
13959;SDS011;7052;51.050;3.716;2024-02-16T06:13:18;8.27;;;4.17;;
13959;SDS011;7052;51.050;3.716;2024-02-16T06:15:47;5.90;;;4.20;;
13959;SDS011;7052;51.050;3.716;2024-02-16T06:18:15;5.03;;;3.88;;
13959;SDS011;7052;51.050;3.716;2024-02-16T06:20:42;10.43;;;4.03;;
13959;SDS011;7052;51.050;3.716;2024-02-16T06:23:11;6.22;;;4.30;;
13959;SDS011;7052;51.050;3.716;2024-02-16T06:25:43;7.00;;;4.45;;
13959;SDS011;7052;51.050;3.716;2024-02-16T06:28:10;7.57;;;4.20;;
13959;SDS011;7052;51.050;3.716;2024-02-16T06:30:37;10.30;;;4.40;;
13959;SDS011;7052;51.050;3.716;2024-02-16T06:33:04;7.83;;;4.13;;
13959;SDS011;7052;51.050;3.716;2024-02-16T06:35:31;8.93;;;4.60;;
13959;SDS011;7052;51.050;3.716;2024-02-16T06:37:58;19.23;;;4.82;;
13959;SDS011;7052;51.050;3.716;2024-02-16T06:40:26;6.33;;;4.53;;
13959;SDS011;7052;51.050;3.716;2024-02-16T06:42:54;9.70;;;4.60;;
13959;SDS011;7052;51.050;3.716;2024-02-16T06:45:22;7.68;;;4.47;;
13959;SDS011;7052;51.050;3.716;2024-02-16T06:47:50;8.25;;;4.60;;
13959;SDS011;7052;51.050;3.716;2024-02-16T06:50:17;4.65;;;4.07;;
13959;SDS011;7052;51.050;3.716;2024-02-16T06:52:44;5.47;;;4.40;;
13959;SDS011;7052;51.050;3.716;2024-02-16T06:55:13;7.35;;;4.15;;
13959;SDS011;7052;51.050;3.716;2024-02-16T06:57:41;6.65;;;3.95;;
13959;SDS011;7052;51.050;3.716;2024-02-16T07:00:10;5.50;;;3.97;;
13959;SDS011;7052;51.050;3.716;2024-02-16T07:02:40;4.88;;;4.38;;
13959;SDS011;7052;51.050;3.716;2024-02-16T07:05:07;6.40;;;4.30;;
13959;SDS011;7052;51.050;3.716;2024-02-16T07:07:35;8.80;;;4.40;;
13959;SDS011;7052;51.050;3.716;2024-02-16T07:10:02;5.03;;;4.20;;
13959;SDS011;7052;51.050;3.716;2024-02-16T07:12:32;6.10;;;4.68;;
13959;SDS011;7052;51.050;3.716;2024-02-16T07:15:02;7.43;;;5.10;;
13959;SDS011;7052;51.050;3.716;2024-02-16T07:17:30;8.73;;;4.53;;
13959;SDS011;7052;51.050;3.716;2024-02-16T07:19:59;6.03;;;4.53;;
13959;SDS011;7052;51.050;3.716;2024-02-16T07:22:29;8.25;;;4.20;;
13959;SDS011;7052;51.050;3.716;2024-02-16T07:24:57;6.35;;;4.60;;
13959;SDS011;7052;51.050;3.716;2024-02-16T07:27:26;6.00;;;4.40;;
13959;SDS011;7052;51.050;3.716;2024-02-16T07:29:54;6.80;;;4.40;;
13959;SDS011;7052;51.050;3.716;2024-02-16T07:32:22;7.03;;;4.80;;
13959;SDS011;7052;51.050;3.716;2024-02-16T07:34:50;9.43;;;4.40;;
13959;SDS011;7052;51.050;3.716;2024-02-16T07:37:16;5.88;;;4.20;;
13959;SDS011;7052;51.050;3.716;2024-02-16T07:39:43;6.63;;;4.22;;
13959;SDS011;7052;51.050;3.716;2024-02-16T07:42:12;16.00;;;5.32;;
13959;SDS011;7052;51.050;3.716;2024-02-16T07:44:42;5.55;;;4.20;;
13959;SDS011;7052;51.050;3.716;2024-02-16T07:47:08;6.65;;;4.00;;
13959;SDS011;7052;51.050;3.716;2024-02-16T07:49:38;5.78;;;4.32;;
13959;SDS011;7052;51.050;3.716;2024-02-16T07:52:07;5.67;;;4.80;;
13959;SDS011;7052;51.050;3.716;2024-02-16T07:54:36;6.77;;;4.33;;
13959;SDS011;7052;51.050;3.716;2024-02-16T07:57:03;6.77;;;4.53;;
13959;SDS011;7052;51.050;3.716;2024-02-16T07:59:31;8.45;;;4.18;;
13959;SDS011;7052;51.050;3.716;2024-02-16T08:02:00;5.97;;;4.70;;
13959;SDS011;7052;51.050;3.716;2024-02-16T08:04:28;6.78;;;4.45;;
13959;SDS011;7052;51.050;3.716;2024-02-16T08:07:00;6.60;;;4.72;;
13959;SDS011;7052;51.050;3.716;2024-02-16T08:09:30;9.43;;;4.68;;
13959;SDS011;7052;51.050;3.716;2024-02-16T08:11:57;7.10;;;4.72;;
13959;SDS011;7052;51.050;3.716;2024-02-16T08:14:24;4.65;;;4.13;;
13959;SDS011;7052;51.050;3.716;2024-02-16T08:16:52;6.65;;;4.63;;
13959;SDS011;7052;51.050;3.716;2024-02-16T08:19:26;8.55;;;5.00;;
13959;SDS011;7052;51.050;3.716;2024-02-16T08:22:00;6.75;;;4.68;;
13959;SDS011;7052;51.050;3.716;2024-02-16T08:24:27;7.75;;;4.40;;
13959;SDS011;7052;51.050;3.716;2024-02-16T08:26:54;7.38;;;4.93;;
13959;SDS011;7052;51.050;3.716;2024-02-16T08:29:21;6.35;;;4.72;;
13959;SDS011;7052;51.050;3.716;2024-02-16T08:31:51;8.37;;;4.70;;
13959;SDS011;7052;51.050;3.716;2024-02-16T08:34:18;9.30;;;4.25;;
13959;SDS011;7052;51.050;3.716;2024-02-16T08:36:48;7.80;;;4.38;;
13959;SDS011;7052;51.050;3.716;2024-02-16T08:39:19;7.50;;;4.88;;
13959;SDS011;7052;51.050;3.716;2024-02-16T08:41:50;6.40;;;4.72;;
13959;SDS011;7052;51.050;3.716;2024-02-16T08:44:17;9.05;;;4.88;;
13959;SDS011;7052;51.050;3.716;2024-02-16T08:46:45;9.50;;;4.72;;
13959;SDS011;7052;51.050;3.716;2024-02-16T08:49:13;8.18;;;5.18;;
13959;SDS011;7052;51.050;3.716;2024-02-16T08:51:43;7.35;;;4.72;;
13959;SDS011;7052;51.050;3.716;2024-02-16T08:54:11;8.65;;;4.68;;
13959;SDS011;7052;51.050;3.716;2024-02-16T08:56:39;9.53;;;4.90;;
13959;SDS011;7052;51.050;3.716;2024-02-16T08:59:06;6.57;;;4.60;;
13959;SDS011;7052;51.050;3.716;2024-02-16T09:01:33;8.85;;;5.50;;
13959;SDS011;7052;51.050;3.716;2024-02-16T09:04:03;8.20;;;5.25;;
13959;SDS011;7052;51.050;3.716;2024-02-16T09:06:32;10.50;;;5.00;;
13959;SDS011;7052;51.050;3.716;2024-02-16T09:09:00;9.23;;;5.15;;
13959;SDS011;7052;51.050;3.716;2024-02-16T09:11:27;7.20;;;5.00;;
13959;SDS011;7052;51.050;3.716;2024-02-16T09:13:56;9.10;;;5.30;;
13959;SDS011;7052;51.050;3.716;2024-02-16T09:16:23;8.52;;;5.15;;
13959;SDS011;7052;51.050;3.716;2024-02-16T09:18:50;8.23;;;5.20;;
13959;SDS011;7052;51.050;3.716;2024-02-16T09:21:17;9.45;;;5.28;;
13959;SDS011;7052;51.050;3.716;2024-02-16T09:23:47;8.40;;;5.40;;
13959;SDS011;7052;51.050;3.716;2024-02-16T09:26:17;9.13;;;5.90;;
13959;SDS011;7052;51.050;3.716;2024-02-16T09:28:44;10.80;;;6.10;;
13959;SDS011;7052;51.050;3.716;2024-02-16T09:31:15;10.33;;;6.50;;
13959;SDS011;7052;51.050;3.716;2024-02-16T09:33:42;10.43;;;6.38;;
13959;SDS011;7052;51.050;3.716;2024-02-16T09:36:09;10.98;;;6.10;;
13959;SDS011;7052;51.050;3.716;2024-02-16T09:38:37;12.55;;;7.03;;
13959;SDS011;7052;51.050;3.716;2024-02-16T09:41:05;10.53;;;6.20;;
13959;SDS011;7052;51.050;3.716;2024-02-16T09:43:32;12.90;;;6.22;;
13959;SDS011;7052;51.050;3.716;2024-02-16T09:46:00;11.67;;;7.50;;
13959;SDS011;7052;51.050;3.716;2024-02-16T09:48:28;12.17;;;7.80;;
13959;SDS011;7052;51.050;3.716;2024-02-16T09:50:55;8.77;;;7.00;;
13959;SDS011;7052;51.050;3.716;2024-02-16T09:53:25;11.53;;;7.13;;
13959;SDS011;7052;51.050;3.716;2024-02-16T09:55:55;14.77;;;7.30;;
13959;SDS011;7052;51.050;3.716;2024-02-16T09:58:22;9.87;;;7.67;;
13959;SDS011;7052;51.050;3.716;2024-02-16T10:00:51;16.13;;;10.97;;
13959;SDS011;7052;51.050;3.716;2024-02-16T10:03:23;12.77;;;8.00;;
13959;SDS011;7052;51.050;3.716;2024-02-16T10:05:52;15.43;;;10.00;;
13959;SDS011;7052;51.050;3.716;2024-02-16T10:08:30;11.90;;;8.10;;
13959;SDS011;7052;51.050;3.716;2024-02-16T10:11:00;13.90;;;7.83;;
13959;SDS011;7052;51.050;3.716;2024-02-16T10:13:31;14.63;;;8.90;;
13959;SDS011;7052;51.050;3.716;2024-02-16T10:16:05;13.20;;;8.35;;
13959;SDS011;7052;51.050;3.716;2024-02-16T10:18:34;12.43;;;8.30;;
13959;SDS011;7052;51.050;3.716;2024-02-16T10:21:03;12.00;;;9.27;;
13959;SDS011;7052;51.050;3.716;2024-02-16T10:23:32;16.50;;;8.40;;
13959;SDS011;7052;51.050;3.716;2024-02-16T10:26:02;12.03;;;9.03;;
13959;SDS011;7052;51.050;3.716;2024-02-16T10:28:32;15.20;;;9.87;;
13959;SDS011;7052;51.050;3.716;2024-02-16T10:30:59;14.80;;;9.18;;
13959;SDS011;7052;51.050;3.716;2024-02-16T10:33:28;14.23;;;9.25;;
13959;SDS011;7052;51.050;3.716;2024-02-16T10:35:55;13.82;;;9.98;;
13959;SDS011;7052;51.050;3.716;2024-02-16T10:38:25;15.23;;;10.13;;
13959;SDS011;7052;51.050;3.716;2024-02-16T10:40:53;15.10;;;10.40;;
13959;SDS011;7052;51.050;3.716;2024-02-16T10:43:25;15.60;;;10.70;;
13959;SDS011;7052;51.050;3.716;2024-02-16T10:45:55;14.43;;;10.85;;
13959;SDS011;7052;51.050;3.716;2024-02-16T10:48:23;14.03;;;11.57;;
13959;SDS011;7052;51.050;3.716;2024-02-16T10:50:51;17.70;;;11.77;;
13959;SDS011;7052;51.050;3.716;2024-02-16T10:53:22;18.37;;;12.53;;
13959;SDS011;7052;51.050;3.716;2024-02-16T10:55:56;14.38;;;12.82;;
13959;SDS011;7052;51.050;3.716;2024-02-16T10:58:23;16.00;;;13.70;;
13959;SDS011;7052;51.050;3.716;2024-02-16T11:00:54;17.23;;;13.83;;
13959;SDS011;7052;51.050;3.716;2024-02-16T11:03:23;17.27;;;14.83;;
13959;SDS011;7052;51.050;3.716;2024-02-16T11:05:52;16.93;;;13.73;;
13959;SDS011;7052;51.050;3.716;2024-02-16T11:08:23;16.37;;;13.50;;
13959;SDS011;7052;51.050;3.716;2024-02-16T11:10:56;14.50;;;12.97;;
13959;SDS011;7052;51.050;3.716;2024-02-16T11:13:26;18.27;;;13.93;;
13959;SDS011;7052;51.050;3.716;2024-02-16T11:15:57;15.07;;;13.30;;
13959;SDS011;7052;51.050;3.716;2024-02-16T11:18:26;16.90;;;13.60;;
13959;SDS011;7052;51.050;3.716;2024-02-16T11:20:54;14.23;;;12.80;;
13959;SDS011;7052;51.050;3.716;2024-02-16T11:23:25;16.47;;;13.23;;
13959;SDS011;7052;51.050;3.716;2024-02-16T11:25:58;13.47;;;11.47;;
13959;SDS011;7052;51.050;3.716;2024-02-16T11:28:28;12.33;;;11.03;;
13959;SDS011;7052;51.050;3.716;2024-02-16T11:30:57;9.77;;;8.73;;
13959;SDS011;7052;51.050;3.716;2024-02-16T11:33:25;9.53;;;8.47;;
13959;SDS011;7052;51.050;3.716;2024-02-16T11:35:53;9.93;;;8.93;;
13959;SDS011;7052;51.050;3.716;2024-02-16T11:38:21;9.20;;;8.13;;
13959;SDS011;7052;51.050;3.716;2024-02-16T11:40:57;9.60;;;8.60;;
13959;SDS011;7052;51.050;3.716;2024-02-16T11:43:26;8.67;;;7.77;;
13959;SDS011;7052;51.050;3.716;2024-02-16T11:45:55;10.20;;;8.37;;
13959;SDS011;7052;51.050;3.716;2024-02-16T11:48:23;8.20;;;7.23;;
13959;SDS011;7052;51.050;3.716;2024-02-16T11:50:58;9.60;;;7.93;;
13959;SDS011;7052;51.050;3.716;2024-02-16T11:53:27;10.33;;;7.80;;
13959;SDS011;7052;51.050;3.716;2024-02-16T11:55:54;8.07;;;7.10;;
13959;SDS011;7052;51.050;3.716;2024-02-16T11:58:25;9.37;;;7.10;;
13959;SDS011;7052;51.050;3.716;2024-02-16T12:00:55;7.60;;;6.80;;
13959;SDS011;7052;51.050;3.716;2024-02-16T12:03:25;6.78;;;6.05;;
13959;SDS011;7052;51.050;3.716;2024-02-16T12:05:53;10.23;;;6.30;;
13959;SDS011;7052;51.050;3.716;2024-02-16T12:08:21;7.90;;;6.07;;
13959;SDS011;7052;51.050;3.716;2024-02-16T12:10:49;8.67;;;7.23;;
13959;SDS011;7052;51.050;3.716;2024-02-16T12:13:18;7.88;;;5.90;;
13959;SDS011;7052;51.050;3.716;2024-02-16T12:15:46;8.05;;;6.32;;
13959;SDS011;7052;51.050;3.716;2024-02-16T12:18:20;6.83;;;5.93;;
13959;SDS011;7052;51.050;3.716;2024-02-16T12:20:57;6.30;;;5.13;;
13959;SDS011;7052;51.050;3.716;2024-02-16T12:23:25;6.20;;;5.60;;
13959;SDS011;7052;51.050;3.716;2024-02-16T12:25:53;6.43;;;5.35;;
13959;SDS011;7052;51.050;3.716;2024-02-16T12:28:23;5.97;;;5.35;;
13959;SDS011;7052;51.050;3.716;2024-02-16T12:30:52;6.57;;;5.07;;
13959;SDS011;7052;51.050;3.716;2024-02-16T12:33:19;6.80;;;5.03;;
13959;SDS011;7052;51.050;3.716;2024-02-16T12:35:46;6.03;;;5.18;;
13959;SDS011;7052;51.050;3.716;2024-02-16T12:38:13;6.10;;;5.28;;
13959;SDS011;7052;51.050;3.716;2024-02-16T12:40:42;6.40;;;5.13;;
13959;SDS011;7052;51.050;3.716;2024-02-16T12:43:09;6.00;;;4.45;;
13959;SDS011;7052;51.050;3.716;2024-02-16T12:45:42;6.05;;;4.28;;
13959;SDS011;7052;51.050;3.716;2024-02-16T12:48:09;4.65;;;4.25;;
13959;SDS011;7052;51.050;3.716;2024-02-16T12:50:39;4.50;;;4.10;;
13959;SDS011;7052;51.050;3.716;2024-02-16T12:53:08;5.00;;;4.45;;
13959;SDS011;7052;51.050;3.716;2024-02-16T12:55:36;5.45;;;4.72;;
13959;SDS011;7052;51.050;3.716;2024-02-16T12:58:04;4.97;;;4.47;;
13959;SDS011;7052;51.050;3.716;2024-02-16T13:00:32;5.07;;;4.55;;
13959;SDS011;7052;51.050;3.716;2024-02-16T13:03:05;4.70;;;4.30;;
13959;SDS011;7052;51.050;3.716;2024-02-16T13:05:32;6.10;;;4.13;;
13959;SDS011;7052;51.050;3.716;2024-02-16T13:07:59;5.28;;;4.53;;
13959;SDS011;7052;51.050;3.716;2024-02-16T13:10:26;4.63;;;4.18;;
13959;SDS011;7052;51.050;3.716;2024-02-16T13:12:55;4.30;;;3.90;;
13959;SDS011;7052;51.050;3.716;2024-02-16T13:15:22;4.95;;;4.32;;
13959;SDS011;7052;51.050;3.716;2024-02-16T13:17:49;6.53;;;4.03;;
13959;SDS011;7052;51.050;3.716;2024-02-16T13:20:17;5.03;;;4.50;;
13959;SDS011;7052;51.050;3.716;2024-02-16T13:22:46;5.35;;;4.28;;
13959;SDS011;7052;51.050;3.716;2024-02-16T13:25:13;4.40;;;4.00;;
13959;SDS011;7052;51.050;3.716;2024-02-16T13:27:41;4.93;;;4.43;;
13959;SDS011;7052;51.050;3.716;2024-02-16T13:30:08;6.40;;;4.75;;
13959;SDS011;7052;51.050;3.716;2024-02-16T13:32:36;6.03;;;4.43;;
13959;SDS011;7052;51.050;3.716;2024-02-16T13:35:05;5.25;;;4.32;;
13959;SDS011;7052;51.050;3.716;2024-02-16T13:37:36;9.00;;;5.32;;
13959;SDS011;7052;51.050;3.716;2024-02-16T13:40:04;5.40;;;4.88;;
13959;SDS011;7052;51.050;3.716;2024-02-16T13:42:36;6.05;;;4.57;;
13959;SDS011;7052;51.050;3.716;2024-02-16T13:45:03;6.25;;;5.00;;
13959;SDS011;7052;51.050;3.716;2024-02-16T13:47:31;5.22;;;4.72;;
13959;SDS011;7052;51.050;3.716;2024-02-16T13:50:00;8.00;;;4.38;;
13959;SDS011;7052;51.050;3.716;2024-02-16T13:52:29;5.43;;;4.45;;
13959;SDS011;7052;51.050;3.716;2024-02-16T13:54:59;5.00;;;4.53;;
13959;SDS011;7052;51.050;3.716;2024-02-16T13:57:26;4.25;;;3.83;;
13959;SDS011;7052;51.050;3.716;2024-02-16T13:59:53;4.13;;;3.10;;
13959;SDS011;7052;51.050;3.716;2024-02-16T14:02:21;3.60;;;3.08;;
13959;SDS011;7052;51.050;3.716;2024-02-16T14:04:49;4.07;;;3.05;;
13959;SDS011;7052;51.050;3.716;2024-02-16T14:07:18;3.30;;;2.80;;
13959;SDS011;7052;51.050;3.716;2024-02-16T14:09:47;4.55;;;3.20;;
13959;SDS011;7052;51.050;3.716;2024-02-16T14:12:21;3.58;;;3.20;;
13959;SDS011;7052;51.050;3.716;2024-02-16T14:14:51;4.05;;;3.22;;
13959;SDS011;7052;51.050;3.716;2024-02-16T14:17:19;4.03;;;3.20;;
13959;SDS011;7052;51.050;3.716;2024-02-16T14:19:46;5.97;;;3.30;;
13959;SDS011;7052;51.050;3.716;2024-02-16T14:22:13;5.63;;;3.50;;
13959;SDS011;7052;51.050;3.716;2024-02-16T14:24:40;4.90;;;3.30;;
13959;SDS011;7052;51.050;3.716;2024-02-16T14:27:11;4.07;;;3.38;;
13959;SDS011;7052;51.050;3.716;2024-02-16T14:29:46;5.65;;;3.42;;
13959;SDS011;7052;51.050;3.716;2024-02-16T14:32:13;4.68;;;3.53;;
13959;SDS011;7052;51.050;3.716;2024-02-16T14:34:42;5.22;;;3.30;;
13959;SDS011;7052;51.050;3.716;2024-02-16T14:37:12;5.88;;;3.85;;
13959;SDS011;7052;51.050;3.716;2024-02-16T14:39:40;6.43;;;3.75;;
13959;SDS011;7052;51.050;3.716;2024-02-16T14:42:07;4.10;;;3.70;;
13959;SDS011;7052;51.050;3.716;2024-02-16T14:44:34;6.03;;;4.00;;
13959;SDS011;7052;51.050;3.716;2024-02-16T14:47:02;7.43;;;3.95;;
13959;SDS011;7052;51.050;3.716;2024-02-16T14:49:30;6.78;;;4.15;;
13959;SDS011;7052;51.050;3.716;2024-02-16T14:51:57;4.25;;;3.05;;
13959;SDS011;7052;51.050;3.716;2024-02-16T14:54:24;5.40;;;3.28;;
13959;SDS011;7052;51.050;3.716;2024-02-16T14:56:52;4.28;;;3.03;;
13959;SDS011;7052;51.050;3.716;2024-02-16T14:59:20;4.72;;;3.13;;
13959;SDS011;7052;51.050;3.716;2024-02-16T15:01:54;4.18;;;3.20;;
13959;SDS011;7052;51.050;3.716;2024-02-16T15:04:25;3.88;;;3.40;;